Time;durP1;ratioP1;P1;durP2;ratioP2;P2;SDS_P1;SDS_P2;PMS_P1;PMS_P2;Temp;Humidity;BMP_temperature;BMP_pressure;BME280_temperature;BME280_humidity;BME280_pressure;Samples;Min_cycle;Max_cycle;Signal;HPM_P1;HPM_P2
2022/03/23 00:01:54;;;;;;;3.67;0.60;;;;;;;;;;5007857;28;20082;-62
2022/03/23 00:04:20;;;;;;;3.92;0.68;;;;;;;;;;5008288;28;20045;-62
2022/03/23 00:06:46;;;;;;;2.13;0.50;;;;;;;;;;5013897;27;20068;-62
2022/03/23 00:09:15;;;;;;;3.75;0.98;;;;;;;;;;5109296;27;20935;-62
2022/03/23 00:11:41;;;;;;;2.70;0.60;;;;;;;;;;5008308;28;20048;-63
2022/03/23 00:14:09;;;;;;;4.65;0.70;;;;;;;;;;5008196;28;20106;-62
2022/03/23 00:16:36;;;;;;;2.83;0.68;;;;;;;;;;5007674;28;20034;-62
2022/03/23 00:19:02;;;;;;;3.05;0.57;;;;;;;;;;5007152;28;20750;-61
2022/03/23 00:21:28;;;;;;;1.35;0.50;;;;;;;;;;5006708;28;20805;-62
2022/03/23 00:23:54;;;;;;;3.60;0.50;;;;;;;;;;5006918;28;20133;-62
2022/03/23 00:26:20;;;;;;;2.92;0.60;;;;;;;;;;5007160;28;20037;-62
2022/03/23 00:28:46;;;;;;;6.00;0.90;;;;;;;;;;5006469;28;20374;-62
2022/03/23 00:31:12;;;;;;;2.92;0.50;;;;;;;;;;5008226;27;20143;-61
2022/03/23 00:33:38;;;;;;;4.85;0.63;;;;;;;;;;5009498;28;20054;-62
2022/03/23 00:36:06;;;;;;;3.33;0.60;;;;;;;;;;5007420;28;20034;-61
2022/03/23 00:38:32;;;;;;;2.35;0.70;;;;;;;;;;5006183;28;20526;-61
2022/03/23 00:40:58;;;;;;;4.82;0.80;;;;;;;;;;5008079;28;20030;-61
2022/03/23 00:43:24;;;;;;;2.45;0.57;;;;;;;;;;5008200;28;20038;-60
2022/03/23 00:45:50;;;;;;;6.22;1.10;;;;;;;;;;5007528;28;20069;-62
2022/03/23 00:48:16;;;;;;;3.30;0.70;;;;;;;;;;5007977;28;20536;-61
2022/03/23 00:50:42;;;;;;;4.80;0.70;;;;;;;;;;5004027;28;20040;-61
2022/03/23 00:53:08;;;;;;;2.25;0.60;;;;;;;;;;5007075;28;20049;-62
2022/03/23 00:55:34;;;;;;;2.70;0.73;;;;;;;;;;5004751;27;20125;-61
2022/03/23 00:58:00;;;;;;;3.65;0.68;;;;;;;;;;5007460;28;20060;-64
2022/03/23 01:00:26;;;;;;;5.85;0.77;;;;;;;;;;5007865;28;20084;-65
2022/03/23 01:02:53;;;;;;;6.22;0.95;;;;;;;;;;5006613;28;20046;-63
2022/03/23 01:05:19;;;;;;;1.98;0.70;;;;;;;;;;5007191;28;20041;-63
2022/03/23 01:07:46;;;;;;;2.80;0.60;;;;;;;;;;5006657;28;20075;-61
2022/03/23 01:10:13;;;;;;;2.00;0.57;;;;;;;;;;5008046;28;20041;-60
2022/03/23 01:12:44;;;;;;;2.60;0.55;;;;;;;;;;5008356;28;20868;-58
2022/03/23 01:15:11;;;;;;;4.18;0.80;;;;;;;;;;5021993;28;20041;-61
2022/03/23 01:17:37;;;;;;;4.28;0.90;;;;;;;;;;5007631;28;20041;-61
2022/03/23 01:20:08;;;;;;;3.65;0.60;;;;;;;;;;5007526;28;20042;-61
2022/03/23 01:25:19;;;;;;;7.68;0.95;;;;;;;;;;5009313;28;20489;-61
2022/03/23 01:27:45;;;;;;;4.75;0.77;;;;;;;;;;5009392;28;20116;-60
2022/03/23 01:30:12;;;;;;;7.68;1.00;;;;;;;;;;5013424;28;20034;-60
2022/03/23 01:32:39;;;;;;;4.53;0.70;;;;;;;;;;5011227;28;20042;-62
2022/03/23 01:35:07;;;;;;;4.68;0.80;;;;;;;;;;5011710;28;20045;-61
2022/03/23 01:37:33;;;;;;;4.03;0.77;;;;;;;;;;5007183;27;21972;-61
2022/03/23 01:39:59;;;;;;;2.20;0.60;;;;;;;;;;5007314;28;20067;-61
2022/03/23 01:42:27;;;;;;;3.97;0.70;;;;;;;;;;5001289;27;20148;-61
2022/03/23 01:44:53;;;;;;;4.10;0.88;;;;;;;;;;5008971;28;20038;-61
2022/03/23 01:47:19;;;;;;;5.95;0.95;;;;;;;;;;5006352;28;20505;-61
2022/03/23 01:49:53;;;;;;;6.78;0.70;;;;;;;;;;5006771;28;20981;-60
2022/03/23 01:52:21;;;;;;;2.08;0.65;;;;;;;;;;5006001;28;20083;-60
2022/03/23 01:54:48;;;;;;;2.33;0.65;;;;;;;;;;5004959;28;20494;-60
2022/03/23 01:57:14;;;;;;;3.25;0.50;;;;;;;;;;5006592;28;20083;-61
2022/03/23 01:59:40;;;;;;;2.92;0.60;;;;;;;;;;5004285;28;20077;-62
2022/03/23 02:02:08;;;;;;;4.28;0.80;;;;;;;;;;5006872;28;20104;-59
2022/03/23 02:04:34;;;;;;;4.50;0.55;;;;;;;;;;5004873;28;20115;-62
2022/03/23 02:07:00;;;;;;;3.88;0.60;;;;;;;;;;5007129;28;20042;-61
2022/03/23 02:09:27;;;;;;;4.38;0.55;;;;;;;;;;5020841;27;20099;-61
2022/03/23 02:11:54;;;;;;;1.60;0.47;;;;;;;;;;5006182;28;20170;-60
2022/03/23 02:14:20;;;;;;;3.03;0.50;;;;;;;;;;5006609;28;20121;-58
2022/03/23 02:16:47;;;;;;;1.75;0.52;;;;;;;;;;5005934;28;20539;-58
2022/03/23 02:19:13;;;;;;;3.72;0.70;;;;;;;;;;5005236;28;20072;-60
2022/03/23 02:21:43;;;;;;;3.83;0.60;;;;;;;;;;5004893;28;20514;-60
2022/03/23 02:24:09;;;;;;;1.48;0.55;;;;;;;;;;5007848;28;20057;-61
2022/03/23 02:26:37;;;;;;;3.13;0.60;;;;;;;;;;5106552;27;20611;-60
2022/03/23 02:29:04;;;;;;;2.22;0.50;;;;;;;;;;5005811;28;20071;-60
2022/03/23 02:31:30;;;;;;;2.72;0.60;;;;;;;;;;5004895;28;20038;-59
2022/03/23 02:33:57;;;;;;;3.33;0.70;;;;;;;;;;5006710;28;20038;-60
2022/03/23 02:36:22;;;;;;;2.05;0.52;;;;;;;;;;5004604;28;20571;-61
2022/03/23 02:38:48;;;;;;;2.92;0.80;;;;;;;;;;5002834;28;20057;-61
2022/03/23 02:41:14;;;;;;;6.80;0.70;;;;;;;;;;5004592;28;20034;-61
2022/03/23 02:43:40;;;;;;;2.08;0.50;;;;;;;;;;5006017;28;20037;-60
2022/03/23 02:46:11;;;;;;;3.30;0.70;;;;;;;;;;5005883;28;21666;-59
2022/03/23 02:48:37;;;;;;;1.95;0.50;;;;;;;;;;5003722;28;20075;-61
2022/03/23 02:51:03;;;;;;;3.35;0.77;;;;;;;;;;5005590;28;20960;-60
2022/03/23 03:02:21;;;;;;;4.30;0.77;;;;;;;;;;5007763;27;20055;-61
2022/03/23 03:04:48;;;;;;;3.75;0.90;;;;;;;;;;5004157;28;20038;-60
2022/03/23 03:07:14;;;;;;;4.25;0.90;;;;;;;;;;5005910;28;20046;-61
2022/03/23 03:09:40;;;;;;;2.03;0.60;;;;;;;;;;5003546;28;20725;-61
2022/03/23 03:12:07;;;;;;;3.50;0.70;;;;;;;;;;5004779;27;20042;-60
2022/03/23 03:14:34;;;;;;;4.35;0.80;;;;;;;;;;5005142;28;20589;-60
2022/03/23 03:16:59;;;;;;;6.15;0.85;;;;;;;;;;5006025;28;20051;-60
2022/03/23 03:19:25;;;;;;;2.65;0.77;;;;;;;;;;5003867;28;20045;-61
2022/03/23 03:21:51;;;;;;;4.85;0.80;;;;;;;;;;5006145;28;20050;-61
2022/03/23 03:24:20;;;;;;;2.95;0.90;;;;;;;;;;5006591;28;20045;-61
2022/03/23 03:26:47;;;;;;;5.90;1.10;;;;;;;;;;5004743;28;20064;-61
2022/03/23 03:29:13;;;;;;;2.95;0.90;;;;;;;;;;5006587;28;20093;-62
2022/03/23 03:31:42;;;;;;;5.82;1.30;;;;;;;;;;5004028;28;20037;-59
2022/03/23 03:34:08;;;;;;;3.53;0.80;;;;;;;;;;5010275;28;20378;-60
2022/03/23 03:36:34;;;;;;;2.30;0.60;;;;;;;;;;5008326;28;20045;-61
2022/03/23 03:39:00;;;;;;;7.45;0.80;;;;;;;;;;5006351;28;20123;-62
2022/03/23 03:41:26;;;;;;;4.35;0.75;;;;;;;;;;5007621;28;20477;-61
2022/03/23 03:43:52;;;;;;;3.75;0.57;;;;;;;;;;5008310;28;20162;-60
2022/03/23 03:46:18;;;;;;;1.95;0.70;;;;;;;;;;5006521;28;20038;-61
2022/03/23 03:48:44;;;;;;;5.65;0.70;;;;;;;;;;5011946;27;20170;-54
2022/03/23 03:51:10;;;;;;;3.15;0.82;;;;;;;;;;5006800;28;20572;-57
2022/03/23 03:53:36;;;;;;;2.60;0.50;;;;;;;;;;5007260;28;20038;-52
2022/03/23 03:56:02;;;;;;;1.90;0.57;;;;;;;;;;5008260;28;20040;-59
2022/03/23 03:58:28;;;;;;;3.70;0.60;;;;;;;;;;5004819;28;20049;-55
2022/03/23 04:00:54;;;;;;;4.13;0.70;;;;;;;;;;5006650;28;20041;-54
2022/03/23 04:03:20;;;;;;;2.22;0.52;;;;;;;;;;5007913;28;20593;-57
2022/03/23 04:05:46;;;;;;;3.28;0.80;;;;;;;;;;5007854;28;20042;-56
2022/03/23 04:08:12;;;;;;;3.22;0.55;;;;;;;;;;5009657;27;20030;-56
2022/03/23 04:10:38;;;;;;;2.00;0.60;;;;;;;;;;5005859;28;20129;-54
2022/03/23 04:13:04;;;;;;;3.45;0.68;;;;;;;;;;5006726;28;20706;-53
2022/03/23 04:15:30;;;;;;;2.65;0.60;;;;;;;;;;5006134;28;20607;-57
2022/03/23 04:17:56;;;;;;;1.92;0.60;;;;;;;;;;5007592;28;20050;-53
2022/03/23 04:20:22;;;;;;;4.95;0.80;;;;;;;;;;5005815;28;20038;-54
2022/03/23 04:22:49;;;;;;;2.28;0.60;;;;;;;;;;5007626;28;20069;-53
2022/03/23 04:25:15;;;;;;;3.33;0.52;;;;;;;;;;5008079;28;20042;-56
2022/03/23 04:27:48;;;;;;;4.85;0.70;;;;;;;;;;5007401;28;20067;-55
2022/03/23 04:30:15;;;;;;;1.80;0.60;;;;;;;;;;5007413;28;20037;-56
2022/03/23 04:32:41;;;;;;;1.50;0.47;;;;;;;;;;5006576;28;20120;-54
2022/03/23 04:35:07;;;;;;;1.73;0.60;;;;;;;;;;5005771;28;20124;-55
2022/03/23 04:37:34;;;;;;;2.22;0.40;;;;;;;;;;5006203;27;20843;-56
2022/03/23 04:40:00;;;;;;;2.47;0.60;;;;;;;;;;5007402;28;20049;-55
2022/03/23 04:42:26;;;;;;;2.50;0.50;;;;;;;;;;5007635;28;20478;-55
2022/03/23 04:44:52;;;;;;;1.63;0.40;;;;;;;;;;5007635;28;20042;-54
2022/03/23 04:47:18;;;;;;;1.55;0.60;;;;;;;;;;5007643;27;20544;-56
2022/03/23 04:49:44;;;;;;;2.17;0.60;;;;;;;;;;5005751;28;20067;-55
2022/03/23 04:52:11;;;;;;;3.33;0.82;;;;;;;;;;5009889;28;21328;-56
2022/03/23 04:54:37;;;;;;;1.75;0.50;;;;;;;;;;5007553;28;20044;-55
2022/03/23 04:57:03;;;;;;;3.38;0.70;;;;;;;;;;5008555;28;20041;-55
2022/03/23 04:59:29;;;;;;;3.38;0.70;;;;;;;;;;5006592;28;20410;-55
2022/03/23 05:01:55;;;;;;;4.63;0.70;;;;;;;;;;5006619;28;20042;-55
2022/03/23 05:04:21;;;;;;;1.92;0.60;;;;;;;;;;5005960;28;20045;-53
2022/03/23 05:06:47;;;;;;;3.15;0.73;;;;;;;;;;5005762;28;20088;-55
2022/03/23 05:09:13;;;;;;;4.38;0.70;;;;;;;;;;5004656;28;20098;-56
2022/03/23 05:11:39;;;;;;;2.72;0.70;;;;;;;;;;5005360;28;20045;-54
2022/03/23 05:14:05;;;;;;;3.65;0.65;;;;;;;;;;5005531;28;20065;-55
2022/03/23 05:16:31;;;;;;;1.88;0.50;;;;;;;;;;5005369;28;20061;-53
2022/03/23 05:18:57;;;;;;;7.63;0.80;;;;;;;;;;5005299;28;20132;-55
2022/03/23 05:21:23;;;;;;;1.30;0.50;;;;;;;;;;5005948;28;20072;-54
2022/03/23 05:23:49;;;;;;;2.00;0.57;;;;;;;;;;5006065;28;20042;-56
2022/03/23 05:26:16;;;;;;;2.33;0.57;;;;;;;;;;5005510;28;20153;-55
2022/03/23 05:28:42;;;;;;;7.10;0.75;;;;;;;;;;5004407;28;20079;-56
2022/03/23 05:31:07;;;;;;;1.05;0.38;;;;;;;;;;5005587;28;20482;-55
2022/03/23 05:33:34;;;;;;;3.40;0.70;;;;;;;;;;5006137;28;20033;-54
2022/03/23 05:36:00;;;;;;;3.92;0.50;;;;;;;;;;5004492;28;20038;-55
2022/03/23 05:38:26;;;;;;;3.30;0.57;;;;;;;;;;5005135;28;20070;-55
2022/03/23 05:40:51;;;;;;;3.70;0.80;;;;;;;;;;5005835;28;20157;-55
2022/03/23 05:43:19;;;;;;;1.95;0.60;;;;;;;;;;5004918;28;20034;-55
2022/03/23 05:45:45;;;;;;;3.67;0.70;;;;;;;;;;5004860;28;20038;-56
2022/03/23 05:48:11;;;;;;;4.35;0.77;;;;;;;;;;5004119;28;20030;-57
2022/03/23 05:50:37;;;;;;;3.83;0.90;;;;;;;;;;5003450;28;20037;-56
2022/03/23 05:53:04;;;;;;;2.58;0.80;;;;;;;;;;5003604;28;20064;-56
2022/03/23 05:55:30;;;;;;;4.30;1.00;;;;;;;;;;5002578;28;20032;-56
2022/03/23 05:57:56;;;;;;;2.55;0.70;;;;;;;;;;5005017;28;20053;-54
2022/03/23 06:00:22;;;;;;;2.80;0.80;;;;;;;;;;5004731;28;20351;-54
2022/03/23 06:02:48;;;;;;;2.72;0.50;;;;;;;;;;5006867;28;20119;-55
2022/03/23 06:05:14;;;;;;;2.67;0.77;;;;;;;;;;5018470;28;20075;-55
2022/03/23 06:07:40;;;;;;;2.40;0.80;;;;;;;;;;5007589;28;20037;-55
2022/03/23 06:10:09;;;;;;;2.60;0.82;;;;;;;;;;5007169;28;20046;-54
2022/03/23 06:12:35;;;;;;;4.97;1.10;;;;;;;;;;5005126;28;20042;-53
2022/03/23 06:15:01;;;;;;;6.13;0.82;;;;;;;;;;5007312;28;20137;-56
2022/03/23 06:17:27;;;;;;;2.58;0.80;;;;;;;;;;5003574;28;20063;-54
2022/03/23 06:19:53;;;;;;;3.03;1.00;;;;;;;;;;5004162;28;20054;-56
2022/03/23 06:22:19;;;;;;;6.72;0.90;;;;;;;;;;5004889;28;20955;-54
2022/03/23 06:24:45;;;;;;;4.78;0.93;;;;;;;;;;5014233;28;20045;-54
2022/03/23 06:27:11;;;;;;;3.17;0.98;;;;;;;;;;5007260;28;20065;-55
2022/03/23 06:29:38;;;;;;;5.63;1.08;;;;;;;;;;5004673;28;20135;-56
2022/03/23 06:32:04;;;;;;;5.15;1.05;;;;;;;;;;5005038;28;20057;-54
2022/03/23 06:34:30;;;;;;;4.78;1.05;;;;;;;;;;5004405;28;20122;-56
2022/03/23 06:36:56;;;;;;;3.50;0.90;;;;;;;;;;5007189;28;20137;-55
2022/03/23 06:39:21;;;;;;;2.67;0.80;;;;;;;;;;5004105;28;20060;-54
2022/03/23 06:41:47;;;;;;;3.22;0.93;;;;;;;;;;5005871;28;20078;-52
2022/03/23 06:44:16;;;;;;;2.70;0.70;;;;;;;;;;5004662;28;20076;-55
2022/03/23 06:46:42;;;;;;;4.60;0.98;;;;;;;;;;5003462;28;20443;-55
2022/03/23 06:49:08;;;;;;;3.00;0.80;;;;;;;;;;5005114;28;20056;-56
2022/03/23 06:51:33;;;;;;;9.50;1.10;;;;;;;;;;5003832;28;20037;-56
2022/03/23 06:53:59;;;;;;;3.97;0.98;;;;;;;;;;5003288;28;20042;-55
2022/03/23 06:56:25;;;;;;;4.80;0.77;;;;;;;;;;5004297;28;20523;-55
2022/03/23 06:58:51;;;;;;;5.45;0.95;;;;;;;;;;5002803;28;20041;-56
2022/03/23 07:01:19;;;;;;;2.45;0.80;;;;;;;;;;5004926;28;20038;-55
2022/03/23 07:03:45;;;;;;;2.22;0.75;;;;;;;;;;5103253;27;20034;-55
2022/03/23 07:06:11;;;;;;;2.25;0.68;;;;;;;;;;5002891;28;20042;-55
2022/03/23 07:11:21;;;;;;;3.35;0.70;;;;;;;;;;5007276;28;20382;-55
2022/03/23 07:13:47;;;;;;;3.65;0.82;;;;;;;;;;5007352;28;20037;-55
2022/03/23 07:16:13;;;;;;;2.25;0.70;;;;;;;;;;5009646;27;20045;-54
2022/03/23 07:18:39;;;;;;;4.47;0.80;;;;;;;;;;5005197;28;20045;-53
2022/03/23 07:21:05;;;;;;;1.98;0.60;;;;;;;;;;5007545;28;20037;-55
2022/03/23 07:23:34;;;;;;;3.40;0.60;;;;;;;;;;5006885;28;20033;-54
2022/03/23 07:26:01;;;;;;;2.78;0.80;;;;;;;;;;5110872;27;20125;-55
2022/03/23 07:28:26;;;;;;;3.47;0.95;;;;;;;;;;5007074;28;20034;-56
2022/03/23 07:30:52;;;;;;;3.17;0.70;;;;;;;;;;5007578;28;20044;-53
2022/03/23 07:33:18;;;;;;;2.63;0.70;;;;;;;;;;5007187;28;20029;-52
2022/03/23 07:35:44;;;;;;;4.20;1.15;;;;;;;;;;5007862;28;20041;-55
2022/03/23 07:38:10;;;;;;;2.55;0.88;;;;;;;;;;5006018;28;20053;-55
2022/03/23 07:40:36;;;;;;;4.50;0.80;;;;;;;;;;5006490;28;20430;-55
2022/03/23 07:43:03;;;;;;;3.15;0.85;;;;;;;;;;5007072;28;20071;-56
2022/03/23 07:45:29;;;;;;;6.15;1.10;;;;;;;;;;5006262;28;20056;-56
2022/03/23 07:47:55;;;;;;;2.53;0.77;;;;;;;;;;5006819;28;20042;-56
2022/03/23 07:50:21;;;;;;;4.55;0.80;;;;;;;;;;5006978;28;20048;-53
2022/03/23 07:52:46;;;;;;;2.17;0.63;;;;;;;;;;5008574;28;20545;-55
2022/03/23 07:55:12;;;;;;;2.67;0.70;;;;;;;;;;5007297;28;20465;-56
2022/03/23 07:57:38;;;;;;;1.35;0.50;;;;;;;;;;5008765;27;20448;-55
2022/03/23 08:00:05;;;;;;;1.75;0.50;;;;;;;;;;5006156;28;20042;-55
2022/03/23 08:02:31;;;;;;;1.42;0.50;;;;;;;;;;5007570;28;20041;-55
2022/03/23 08:04:59;;;;;;;1.48;0.57;;;;;;;;;;5006508;28;20068;-54
2022/03/23 08:07:24;;;;;;;1.83;0.60;;;;;;;;;;5006239;27;20106;-56
2022/03/23 08:09:50;;;;;;;1.25;0.50;;;;;;;;;;5109976;27;20037;-55
2022/03/23 08:12:19;;;;;;;3.42;0.73;;;;;;;;;;5007466;28;20033;-55
2022/03/23 08:14:46;;;;;;;1.98;0.70;;;;;;;;;;5006737;28;20053;-55
2022/03/23 08:17:12;;;;;;;1.80;0.55;;;;;;;;;;5006703;28;20496;-55
2022/03/23 08:19:38;;;;;;;1.77;0.60;;;;;;;;;;5008107;27;20492;-56
2022/03/23 08:22:04;;;;;;;2.28;0.70;;;;;;;;;;5005454;28;20060;-55
2022/03/23 08:24:30;;;;;;;2.92;0.75;;;;;;;;;;5007322;28;20065;-54
2022/03/23 08:26:56;;;;;;;2.97;0.85;;;;;;;;;;5006382;28;20093;-54
2022/03/23 08:29:22;;;;;;;3.60;0.80;;;;;;;;;;5008754;28;20520;-55
2022/03/23 08:31:48;;;;;;;2.15;0.57;;;;;;;;;;5007473;28;20041;-54
2022/03/23 08:34:14;;;;;;;1.80;0.60;;;;;;;;;;5006974;28;20033;-54
2022/03/23 08:36:40;;;;;;;1.75;0.60;;;;;;;;;;5007332;28;20436;-55
2022/03/23 08:39:06;;;;;;;1.70;0.60;;;;;;;;;;5007608;28;20509;-55
2022/03/23 08:41:32;;;;;;;2.60;0.80;;;;;;;;;;5007350;28;20045;-56
2022/03/23 08:43:58;;;;;;;3.95;0.80;;;;;;;;;;5009028;28;20080;-55
2022/03/23 08:46:25;;;;;;;3.17;0.77;;;;;;;;;;5006188;28;20385;-56
2022/03/23 08:48:52;;;;;;;5.88;1.00;;;;;;;;;;5007493;28;20041;-52
2022/03/23 08:51:19;;;;;;;2.70;0.90;;;;;;;;;;5009056;28;20082;-54
2022/03/23 08:53:45;;;;;;;4.47;1.10;;;;;;;;;;5008811;28;20228;-54
2022/03/23 08:56:11;;;;;;;2.33;0.60;;;;;;;;;;5007058;28;20037;-55
2022/03/23 08:58:38;;;;;;;3.95;0.70;;;;;;;;;;5006967;28;20049;-55
2022/03/23 09:01:04;;;;;;;4.50;0.60;;;;;;;;;;5007738;28;20046;-56
2022/03/23 09:03:30;;;;;;;1.92;0.60;;;;;;;;;;5008200;28;20030;-54
2022/03/23 09:05:56;;;;;;;3.13;0.70;;;;;;;;;;5010296;28;21772;-55
2022/03/23 09:08:21;;;;;;;7.57;0.93;;;;;;;;;;5009817;27;20976;-55
2022/03/23 09:10:47;;;;;;;3.55;0.70;;;;;;;;;;5011016;28;20052;-56
2022/03/23 09:13:13;;;;;;;2.00;0.80;;;;;;;;;;5009705;28;20037;-55
2022/03/23 09:15:39;;;;;;;3.42;0.68;;;;;;;;;;5009102;28;20052;-55
2022/03/23 09:18:06;;;;;;;4.00;0.85;;;;;;;;;;5009691;28;20810;-55
2022/03/23 09:20:32;;;;;;;5.53;1.00;;;;;;;;;;5009468;28;20038;-55
2022/03/23 09:22:59;;;;;;;3.47;0.88;;;;;;;;;;5008894;28;20045;-54
2022/03/23 09:25:25;;;;;;;7.32;1.10;;;;;;;;;;5010300;28;20603;-54
2022/03/23 09:27:51;;;;;;;2.83;0.80;;;;;;;;;;5009068;28;20065;-55
2022/03/23 09:30:18;;;;;;;4.55;0.90;;;;;;;;;;5008791;28;20065;-52
2022/03/23 09:32:46;;;;;;;3.60;0.82;;;;;;;;;;5007854;28;20626;-53
2022/03/23 09:35:12;;;;;;;2.67;0.75;;;;;;;;;;5007881;28;20124;-54
2022/03/23 09:37:50;;;;;;;2.25;0.60;;;;;;;;;;5005843;28;20050;-56
2022/03/23 09:40:16;;;;;;;1.85;0.70;;;;;;;;;;5006103;28;20057;-54
2022/03/23 09:42:43;;;;;;;2.65;0.65;;;;;;;;;;5007765;27;20607;-56
2022/03/23 09:45:13;;;;;;;3.47;0.60;;;;;;;;;;5004857;28;20098;-54
2022/03/23 09:47:39;;;;;;;4.32;0.80;;;;;;;;;;5003682;28;20110;-53
2022/03/23 09:50:05;;;;;;;2.85;0.63;;;;;;;;;;5005506;28;20494;-55
2022/03/23 09:52:31;;;;;;;2.38;0.70;;;;;;;;;;5005168;28;20042;-54
2022/03/23 09:54:57;;;;;;;2.42;0.60;;;;;;;;;;5004596;28;20098;-55
2022/03/23 09:57:23;;;;;;;2.20;0.52;;;;;;;;;;5003532;28;20052;-55
2022/03/23 09:59:49;;;;;;;2.03;0.55;;;;;;;;;;5004058;28;20042;-53
2022/03/23 10:02:33;;;;;;;2.50;0.60;;;;;;;;;;5004271;28;20719;-54
2022/03/23 10:05:17;;;;;;;2.15;0.77;;;;;;;;;;5004540;28;20913;-55
2022/03/23 10:07:45;;;;;;;2.08;0.65;;;;;;;;;;5007115;28;20041;-56
2022/03/23 10:10:34;;;;;;;2.42;0.70;;;;;;;;;;5019179;28;20708;-54
2022/03/23 10:13:19;;;;;;;1.85;0.60;;;;;;;;;;5003047;28;20045;-56
2022/03/23 10:16:03;;;;;;;3.40;0.90;;;;;;;;;;5003927;28;20038;-52
2022/03/23 10:18:50;;;;;;;2.53;0.70;;;;;;;;;;5002976;28;20493;-55
2022/03/23 10:21:15;;;;;;;1.77;0.73;;;;;;;;;;5005276;28;20080;-54
2022/03/23 10:24:00;;;;;;;3.08;0.70;;;;;;;;;;5003012;28;20569;-56
2022/03/23 10:26:27;;;;;;;4.78;0.98;;;;;;;;;;5004559;28;20038;-56
2022/03/23 10:28:53;;;;;;;4.13;0.90;;;;;;;;;;5003729;28;20068;-56
2022/03/23 10:31:23;;;;;;;5.15;0.90;;;;;;;;;;5003461;28;20503;-56
2022/03/23 10:33:58;;;;;;;2.33;0.70;;;;;;;;;;5003334;28;20069;-56
2022/03/23 10:36:27;;;;;;;3.72;0.88;;;;;;;;;;5002893;28;20086;-55
2022/03/23 10:39:00;;;;;;;3.17;0.70;;;;;;;;;;5003416;28;20054;-56
2022/03/23 10:41:29;;;;;;;3.40;0.90;;;;;;;;;;5004089;28;20378;-52
2022/03/23 10:43:55;;;;;;;5.20;1.08;;;;;;;;;;5004983;28;20044;-53
2022/03/23 10:46:21;;;;;;;6.70;0.95;;;;;;;;;;5001103;28;20045;-55
2022/03/23 10:48:59;;;;;;;3.47;0.90;;;;;;;;;;5002551;28;20050;-57
2022/03/23 10:51:29;;;;;;;4.45;1.00;;;;;;;;;;5003120;28;20052;-56
2022/03/23 10:53:55;;;;;;;3.60;0.85;;;;;;;;;;5004027;28;20111;-56
2022/03/23 10:56:38;;;;;;;2.50;0.75;;;;;;;;;;5005448;28;20875;-55
2022/03/23 10:59:25;;;;;;;5.57;0.90;;;;;;;;;;5003404;28;20057;-56
2022/03/23 11:02:05;;;;;;;6.60;0.80;;;;;;;;;;5003491;28;20045;-57
2022/03/23 11:04:44;;;;;;;8.13;1.10;;;;;;;;;;5002460;28;20034;-56
2022/03/23 11:07:29;;;;;;;5.20;1.13;;;;;;;;;;5004862;28;20038;-56
2022/03/23 11:18:09;;;;;;;3.35;1.00;;;;;;;;;;5003299;28;20450;-57
2022/03/23 11:20:48;;;;;;;2.78;0.90;;;;;;;;;;5004429;28;20056;-57
2022/03/23 11:23:23;;;;;;;4.15;1.02;;;;;;;;;;5005295;28;20062;-56
2022/03/23 11:25:53;;;;;;;10.23;1.38;;;;;;;;;;5001103;28;20044;-56
2022/03/23 11:28:19;;;;;;;3.63;1.08;;;;;;;;;;5002785;28;20046;-56
2022/03/23 11:30:46;;;;;;;6.97;1.17;;;;;;;;;;5003324;28;20059;-56
2022/03/23 11:33:14;;;;;;;6.03;1.08;;;;;;;;;;5003098;28;20042;-56
2022/03/23 11:35:49;;;;;;;7.50;1.10;;;;;;;;;;5002597;28;20042;-56
2022/03/23 11:38:17;;;;;;;3.08;0.90;;;;;;;;;;5001595;28;20638;-54
2022/03/23 11:40:44;;;;;;;4.43;0.88;;;;;;;;;;5002456;28;20102;-55
2022/03/23 11:43:11;;;;;;;2.33;0.70;;;;;;;;;;5003539;28;20050;-57
2022/03/23 11:45:41;;;;;;;5.65;1.00;;;;;;;;;;5003005;28;20522;-56
2022/03/23 11:48:16;;;;;;;10.82;1.50;;;;;;;;;;5003323;28;20033;-56
2022/03/23 11:51:01;;;;;;;4.05;0.90;;;;;;;;;;5004586;28;20042;-55
2022/03/23 11:53:35;;;;;;;4.82;1.02;;;;;;;;;;5004578;28;20048;-57
2022/03/23 11:56:02;;;;;;;3.30;1.02;;;;;;;;;;5006615;28;20041;-56
2022/03/23 11:58:37;;;;;;;4.78;1.02;;;;;;;;;;5006767;28;20053;-54
2022/03/23 12:01:07;;;;;;;9.07;1.48;;;;;;;;;;5008093;28;20050;-57
2022/03/23 12:03:59;;;;;;;5.55;1.50;;;;;;;;;;5007385;28;20462;-56
2022/03/23 12:06:36;;;;;;;4.43;1.30;;;;;;;;;;5002877;28;20045;-57
2022/03/23 12:09:02;;;;;;;7.97;1.70;;;;;;;;;;5005711;28;21070;-58
2022/03/23 12:11:43;;;;;;;10.68;1.63;;;;;;;;;;5008877;27;20095;-54
2022/03/23 12:14:29;;;;;;;16.35;2.20;;;;;;;;;;5006347;28;20117;-57
2022/03/23 12:16:58;;;;;;;7.85;1.60;;;;;;;;;;5006936;28;20045;-55
2022/03/23 12:19:36;;;;;;;13.50;2.00;;;;;;;;;;5005774;28;20084;-55
2022/03/23 12:22:05;;;;;;;8.48;1.88;;;;;;;;;;5007542;27;20132;-56
2022/03/23 12:24:49;;;;;;;8.60;1.70;;;;;;;;;;5004805;28;20631;-52
2022/03/23 12:27:26;;;;;;;24.23;2.65;;;;;;;;;;5005789;28;20049;-54
2022/03/23 12:29:52;;;;;;;9.48;1.45;;;;;;;;;;5019771;28;20046;-56
2022/03/23 12:32:18;;;;;;;15.15;2.10;;;;;;;;;;5006250;28;20034;-56
2022/03/23 12:34:45;;;;;;;11.02;2.05;;;;;;;;;;5007541;28;20104;-55
2022/03/23 12:37:12;;;;;;;15.98;2.20;;;;;;;;;;5008940;28;20095;-56
2022/03/23 12:39:45;;;;;;;15.90;2.40;;;;;;;;;;5007170;28;20096;-55
2022/03/23 12:42:16;;;;;;;16.85;2.38;;;;;;;;;;5009817;28;20065;-53
2022/03/23 12:44:47;;;;;;;15.50;2.03;;;;;;;;;;5008194;28;20432;-54
2022/03/23 12:47:15;;;;;;;19.65;2.25;;;;;;;;;;5008246;28;20080;-54
2022/03/23 12:58:06;;;;;;;12.32;1.90;;;;;;;;;;5003426;28;20598;-55
2022/03/23 13:00:32;;;;;;;13.10;2.00;;;;;;;;;;5005082;27;20045;-53
2022/03/23 13:03:22;;;;;;;12.77;1.77;;;;;;;;;;5006349;28;20140;-55
2022/03/23 13:05:54;;;;;;;16.17;1.48;;;;;;;;;;5032320;28;20041;-52
2022/03/23 13:08:23;;;;;;;10.35;1.63;;;;;;;;;;5005545;27;20049;-53
2022/03/23 13:11:08;;;;;;;6.22;1.55;;;;;;;;;;5004288;28;20042;-54
2022/03/23 13:13:38;;;;;;;5.60;1.10;;;;;;;;;;5002967;28;20069;-54
2022/03/23 13:16:04;;;;;;;3.67;1.20;;;;;;;;;;5004628;28;20562;-52
2022/03/23 13:18:31;;;;;;;5.15;1.00;;;;;;;;;;5003402;28;20517;-53
2022/03/23 13:20:57;;;;;;;5.78;1.35;;;;;;;;;;5021866;27;20061;-54
2022/03/23 13:23:25;;;;;;;11.38;1.52;;;;;;;;;;5004136;28;20058;-54
2022/03/23 13:26:03;;;;;;;5.03;1.50;;;;;;;;;;5006044;28;20030;-54
2022/03/23 13:28:32;;;;;;;3.78;1.02;;;;;;;;;;4986806;28;20045;-54
2022/03/23 13:31:02;;;;;;;5.10;1.33;;;;;;;;;;5005246;28;20574;-55
2022/03/23 13:33:38;;;;;;;4.32;1.15;;;;;;;;;;5006252;28;20041;-54
2022/03/23 13:36:06;;;;;;;4.07;1.10;;;;;;;;;;5008484;27;20137;-53
2022/03/23 13:38:36;;;;;;;9.43;1.25;;;;;;;;;;5009114;27;20140;-53
2022/03/23 13:43:51;;;;;;;5.32;1.20;;;;;;;;;;5004439;28;20065;-54
2022/03/23 13:46:17;;;;;;;4.15;1.33;;;;;;;;;;5006260;28;20042;-55
2022/03/23 13:48:43;;;;;;;8.75;1.15;;;;;;;;;;5006894;28;20038;-53
2022/03/23 13:51:08;;;;;;;13.52;1.67;;;;;;;;;;5006415;27;20128;-55
2022/03/23 13:53:35;;;;;;;7.47;1.48;;;;;;;;;;5005698;28;20038;-54
2022/03/23 13:56:01;;;;;;;4.45;1.67;;;;;;;;;;5006023;28;20042;-54
2022/03/23 13:58:27;;;;;;;5.55;1.17;;;;;;;;;;5006333;28;20160;-54
2022/03/23 14:00:56;;;;;;;5.00;1.40;;;;;;;;;;5006140;28;20137;-55
2022/03/23 14:03:31;;;;;;;9.02;1.98;;;;;;;;;;4989093;28;20049;-54
2022/03/23 14:06:23;;;;;;;16.67;1.83;;;;;;;;;;5005367;28;20537;-54
2022/03/23 14:08:52;;;;;;;5.55;1.02;;;;;;;;;;5005984;28;20053;-55
2022/03/23 14:11:20;;;;;;;4.38;1.30;;;;;;;;;;5004414;28;20097;-54
2022/03/23 14:13:50;;;;;;;5.40;1.17;;;;;;;;;;5017104;27;20042;-52
2022/03/23 14:16:19;;;;;;;7.28;1.17;;;;;;;;;;5067823;27;20502;-51
2022/03/23 14:18:45;;;;;;;5.50;1.20;;;;;;;;;;4987716;28;20057;-55
2022/03/23 14:21:16;;;;;;;5.80;1.33;;;;;;;;;;5006302;28;20033;-54
2022/03/23 14:23:42;;;;;;;5.45;0.80;;;;;;;;;;5013616;27;21041;-54
2022/03/23 14:26:25;;;;;;;4.80;1.00;;;;;;;;;;5072882;27;20030;-55
2022/03/23 14:28:54;;;;;;;9.20;1.33;;;;;;;;;;5000713;28;20090;-55
2022/03/23 14:31:21;;;;;;;5.68;1.20;;;;;;;;;;5007650;28;20046;-55
2022/03/23 14:33:54;;;;;;;4.78;1.25;;;;;;;;;;4978557;28;20151;-53
2022/03/23 14:36:27;;;;;;;5.07;1.17;;;;;;;;;;5006652;28;20053;-54
2022/03/23 14:38:54;;;;;;;6.90;1.00;;;;;;;;;;5007218;28;20073;-55
2022/03/23 14:41:20;;;;;;;12.68;1.50;;;;;;;;;;5005906;28;20042;-53
2022/03/23 14:43:50;;;;;;;11.02;1.75;;;;;;;;;;4988174;28;20041;-55
2022/03/23 14:46:20;;;;;;;5.93;1.33;;;;;;;;;;5004986;28;20033;-54
2022/03/23 14:48:59;;;;;;;10.05;1.80;;;;;;;;;;5002745;28;20149;-55
2022/03/23 14:51:25;;;;;;;11.40;2.05;;;;;;;;;;5003856;28;20091;-55
2022/03/23 14:53:51;;;;;;;7.05;1.73;;;;;;;;;;5004565;28;20053;-53
2022/03/23 14:56:18;;;;;;;6.72;1.48;;;;;;;;;;5005017;28;20050;-53
2022/03/23 14:58:44;;;;;;;10.52;1.52;;;;;;;;;;5003482;28;20071;-54
2022/03/23 15:01:10;;;;;;;6.22;1.75;;;;;;;;;;5005620;28;20472;-56
2022/03/23 15:03:37;;;;;;;8.90;1.67;;;;;;;;;;5005177;28;20057;-55
2022/03/23 15:14:22;;;;;;;8.77;2.33;;;;;;;;;;5003312;28;20124;-52
2022/03/23 15:16:49;;;;;;;11.48;2.17;;;;;;;;;;5004752;28;20049;-53
2022/03/23 15:19:17;;;;;;;14.57;2.50;;;;;;;;;;5003796;28;20042;-56
2022/03/23 15:21:47;;;;;;;11.20;1.98;;;;;;;;;;5003510;28;20996;-52
2022/03/23 15:24:14;;;;;;;11.27;2.28;;;;;;;;;;5004619;28;20105;-53
2022/03/23 15:26:40;;;;;;;17.08;2.10;;;;;;;;;;5002457;28;20076;-56
2022/03/23 15:29:06;;;;;;;18.38;2.53;;;;;;;;;;5006904;28;20053;-54